createdAt,value
2019-05-01T00:03:39.109Z,5.80
2019-05-01T00:08:43.034Z,5.10
2019-05-01T00:13:46.863Z,4.67
2019-05-01T00:18:50.745Z,5.20
2019-05-01T00:23:54.629Z,4.92
2019-05-01T00:28:58.513Z,4.97
2019-05-01T00:34:02.386Z,5.65
2019-05-01T00:39:07.653Z,5.10
2019-05-01T00:44:11.519Z,4.87
2019-05-01T00:49:15.407Z,5.37
2019-05-01T00:54:19.278Z,5.55
2019-05-01T00:59:27.190Z,6.20
2019-05-01T01:04:31.165Z,6.12
2019-05-01T01:09:35.039Z,5.65
2019-05-01T01:14:38.913Z,5.55
2019-05-01T01:19:42.797Z,5.83
2019-05-01T01:24:46.663Z,5.97
2019-05-01T01:29:51.540Z,6.87
2019-05-01T01:34:55.460Z,7.80
2019-05-01T01:39:59.381Z,6.92
2019-05-01T01:45:08.794Z,6.65
2019-05-01T01:50:12.669Z,6.50
2019-05-01T01:55:16.549Z,6.97
2019-05-01T02:00:21.995Z,6.28
2019-05-01T02:05:27.432Z,6.65
2019-05-01T02:10:42.364Z,6.25
2019-05-01T02:15:36.916Z,6.75
2019-05-01T02:20:40.796Z,6.87
2019-05-01T02:25:45.164Z,6.70
2019-05-01T02:31:07.873Z,6.80
2019-05-01T02:36:14.170Z,6.08
2019-05-01T02:41:19.358Z,7.00
2019-05-01T02:46:25.173Z,6.75
2019-05-01T02:51:29.569Z,6.90
2019-05-01T02:56:42.152Z,6.62
2019-05-01T03:01:48.123Z,6.42
2019-05-01T03:06:52.624Z,5.67
2019-05-01T03:11:58.941Z,6.17
2019-05-01T03:17:05.481Z,5.97
2019-05-01T03:22:11.948Z,6.08
2019-05-01T03:27:16.544Z,6.45
2019-05-01T03:32:20.523Z,6.03
2019-05-01T03:37:24.704Z,5.62
2019-05-01T03:42:29.703Z,5.85
2019-05-01T03:47:33.858Z,6.22
2019-05-01T03:52:37.783Z,6.42
2019-05-01T03:57:42.613Z,5.87
2019-05-01T04:02:50.922Z,6.28
2019-05-01T04:07:54.829Z,6.28
2019-05-01T04:12:58.739Z,6.58
2019-05-01T04:18:04.590Z,6.37
2019-05-01T04:23:08.779Z,6.47
2019-05-01T04:28:30.610Z,6.17
2019-05-01T04:33:35.890Z,6.33
2019-05-01T04:38:39.769Z,6.70
2019-05-01T04:43:43.644Z,6.72
2019-05-01T04:48:47.538Z,7.75
2019-05-01T04:53:51.812Z,7.17
2019-05-01T04:58:56.392Z,7.55
2019-05-01T05:04:00.264Z,7.75
2019-05-01T05:09:05.442Z,7.15
2019-05-01T05:14:13.882Z,6.92
2019-05-01T05:19:17.761Z,7.45
2019-05-01T05:24:22.233Z,7.03
2019-05-01T05:29:26.776Z,7.05
2019-05-01T05:34:32.647Z,7.30
2019-05-01T05:39:41.548Z,7.05
2019-05-01T05:44:47.131Z,6.90
2019-05-01T05:49:51.473Z,6.78
2019-05-01T05:55:07.982Z,6.97
2019-05-01T06:00:22.947Z,6.55
2019-05-01T06:05:31.319Z,6.40
2019-05-01T06:10:37.515Z,6.83
2019-05-01T06:15:43.010Z,6.45
2019-05-01T06:20:49.020Z,6.90
2019-05-01T06:26:00.383Z,6.95
2019-05-01T06:31:23.197Z,6.12
2019-05-01T06:41:33.637Z,5.72
2019-05-01T06:46:43.045Z,6.35
2019-05-01T06:51:53.343Z,5.85
2019-05-01T06:56:59.580Z,6.47
2019-05-01T07:02:03.749Z,5.75
2019-05-01T07:07:24.798Z,4.97
2019-05-01T07:12:23.990Z,4.72
2019-05-01T07:17:26.847Z,4.25
2019-05-01T07:22:37.010Z,4.75
2019-05-01T07:27:39.094Z,4.65
2019-05-01T07:32:43.116Z,3.67
2019-05-01T07:37:49.292Z,3.70
2019-05-01T07:43:14.243Z,4.05
2019-05-01T07:48:23.824Z,3.25
2019-05-01T07:58:32.863Z,3.42
2019-05-01T08:03:38.067Z,3.62
2019-05-01T08:08:42.733Z,3.00
2019-05-01T08:13:46.629Z,3.00
2019-05-01T08:18:58.859Z,3.02
2019-05-01T08:23:59.495Z,2.95
2019-05-01T08:29:21.161Z,3.15
2019-05-01T08:34:29.847Z,3.95
2019-05-01T08:39:33.815Z,2.60
2019-05-01T08:44:45.309Z,3.15
2019-05-01T08:49:50.953Z,2.42
2019-05-01T08:54:55.202Z,3.60
2019-05-01T09:00:00.263Z,2.90
2019-05-01T09:05:07.232Z,3.00
2019-05-01T09:10:17.129Z,3.45
2019-05-01T09:15:19.346Z,3.10
2019-05-01T09:20:23.385Z,4.58
2019-05-01T09:25:35.383Z,5.03
2019-05-01T09:30:47.571Z,4.12
2019-05-01T09:35:51.524Z,4.35
2019-05-01T09:40:55.486Z,4.35
2019-05-01T09:45:59.538Z,4.60
2019-05-01T09:51:21.376Z,4.55
2019-05-01T09:56:28.234Z,4.95
2019-05-01T10:01:33.040Z,4.62
2019-05-01T10:06:37.255Z,5.67
2019-05-01T10:11:42.021Z,5.70
2019-05-01T10:16:49.455Z,5.72
2019-05-01T10:21:53.352Z,6.35
2019-05-01T10:27:00.216Z,6.67
2019-05-01T10:32:12.005Z,6.67
2019-05-01T10:37:15.996Z,6.92
2019-05-01T10:42:20.140Z,7.37
2019-05-01T10:47:24.065Z,7.87
2019-05-01T10:52:28.016Z,13.58
2019-05-01T10:57:35.061Z,9.93
2019-05-01T11:02:38.195Z,8.78
2019-05-01T11:07:42.382Z,10.08
2019-05-01T11:12:46.418Z,10.48
2019-05-01T11:17:50.279Z,22.80
2019-05-01T11:22:54.184Z,10.23
2019-05-01T11:27:58.110Z,9.70
2019-05-01T11:33:03.622Z,11.68
2019-05-01T11:38:25.545Z,10.40
2019-05-01T11:43:30.388Z,12.60
2019-05-01T11:48:34.458Z,13.15
2019-05-01T11:53:38.355Z,13.15
2019-05-01T11:58:42.318Z,12.65
2019-05-01T12:03:46.425Z,12.53
2019-05-01T12:08:50.352Z,14.00
2019-05-01T12:13:54.274Z,12.88
2019-05-01T12:18:58.156Z,16.12
2019-05-01T12:24:02.044Z,14.58
2019-05-01T12:29:06.348Z,14.38
2019-05-01T12:34:10.645Z,20.00
2019-05-01T12:39:18.066Z,19.87
2019-05-01T12:44:21.957Z,20.48
2019-05-01T12:49:25.841Z,19.48
2019-05-01T12:54:37.313Z,18.73
2019-05-01T12:59:41.196Z,16.95
2019-05-01T13:04:45.098Z,18.77
2019-05-01T13:09:48.976Z,20.35
2019-05-01T13:14:52.853Z,21.40
2019-05-01T13:19:56.829Z,20.77
2019-05-01T13:25:00.798Z,19.62
2019-05-01T13:30:09.178Z,19.70
2019-05-01T13:35:13.199Z,19.20
2019-05-01T13:40:17.789Z,17.73
2019-05-01T13:45:21.677Z,16.62
2019-05-01T13:50:25.583Z,23.42
2019-05-01T13:55:29.697Z,23.95
2019-05-01T14:00:33.978Z,22.60
2019-05-01T14:05:37.889Z,23.67
2019-05-01T14:10:41.750Z,22.02
2019-05-01T14:15:45.640Z,19.32
2019-05-01T14:21:00.091Z,19.30
2019-05-01T14:26:05.575Z,21.00
2019-05-01T14:31:09.598Z,20.15
2019-05-01T14:36:13.527Z,20.57
2019-05-01T14:41:17.513Z,18.35
2019-05-01T14:46:21.615Z,22.17
2019-05-01T14:51:25.931Z,20.40
2019-05-01T14:56:29.857Z,20.35
2019-05-01T15:01:33.797Z,21.00
2019-05-01T15:06:37.858Z,20.72
2019-05-01T15:11:42.956Z,21.10
2019-05-01T15:16:48.458Z,21.70
2019-05-01T15:21:52.379Z,19.80
2019-05-01T15:26:56.358Z,20.92
2019-05-01T15:32:00.203Z,20.70
2019-05-01T15:37:04.182Z,22.13
2019-05-01T15:42:15.867Z,27.27
2019-05-01T15:47:19.872Z,27.58
2019-05-01T15:52:23.837Z,26.65
2019-05-01T15:57:27.808Z,22.75
2019-05-01T16:02:31.716Z,23.67
2019-05-01T16:07:36.112Z,23.92
2019-05-01T16:12:44.594Z,23.15
2019-05-01T16:17:48.501Z,20.97
2019-05-01T16:22:52.484Z,21.73
2019-05-01T16:27:56.396Z,21.33
2019-05-01T16:33:00.328Z,21.75
2019-05-01T16:38:05.904Z,20.52
2019-05-01T16:43:11.171Z,20.02
2019-05-01T16:48:15.088Z,19.45
2019-05-01T16:53:18.995Z,20.08
2019-05-01T16:58:22.919Z,20.27
2019-05-01T17:03:43.913Z,18.35
2019-05-01T17:08:55.330Z,18.40
2019-05-01T17:14:00.863Z,20.82
2019-05-01T17:19:04.863Z,31.80
2019-05-01T17:24:08.968Z,17.23
2019-05-01T17:29:12.923Z,18.73
2019-05-01T17:34:16.823Z,18.27
2019-05-01T17:39:22.013Z,19.82
2019-05-01T17:44:26.667Z,21.02
2019-05-01T17:49:30.730Z,20.25
2019-05-01T17:54:34.688Z,23.02
2019-05-01T17:59:38.632Z,20.00
2019-05-01T18:05:02.545Z,21.07
2019-05-01T18:10:08.139Z,21.37
2019-05-01T18:15:12.629Z,24.82
2019-05-01T18:20:16.669Z,24.40
2019-05-01T18:25:22.107Z,22.70
2019-05-01T18:30:27.583Z,22.50
2019-05-01T18:35:31.592Z,21.30
2019-05-01T18:40:42.992Z,23.07
2019-05-01T18:45:49.706Z,21.30
2019-05-01T18:50:55.050Z,20.95
2019-05-01T18:56:01.420Z,21.75
2019-05-01T19:01:09.279Z,22.87
2019-05-01T19:06:10.713Z,22.22
2019-05-01T19:11:15.475Z,23.15
2019-05-01T19:16:19.434Z,23.40
2019-05-01T19:21:24.146Z,23.05
2019-05-01T19:26:28.248Z,22.27
2019-05-01T19:31:32.329Z,22.40
2019-05-01T19:36:40.350Z,21.90
2019-05-01T19:41:43.792Z,19.90
2019-05-01T19:46:48.154Z,20.55
2019-05-01T19:51:55.435Z,18.17
2019-05-01T19:56:58.402Z,17.30
2019-05-01T20:02:02.364Z,16.90
2019-05-01T20:07:10.543Z,14.90
2019-05-01T20:12:12.225Z,13.95
2019-05-01T20:17:16.193Z,39.03
2019-05-01T20:22:20.114Z,22.62
2019-05-01T20:27:24.035Z,12.68
2019-05-01T20:32:28.114Z,12.25
2019-05-01T20:37:32.034Z,15.98
2019-05-01T20:42:36.002Z,13.40
2019-05-01T20:47:45.282Z,13.43
2019-05-01T20:52:45.506Z,12.58
2019-05-01T20:57:50.338Z,13.45
2019-05-01T21:02:54.425Z,15.75
2019-05-01T21:08:09.224Z,15.13
2019-05-01T21:13:13.169Z,12.50
2019-05-01T21:18:21.008Z,13.32
2019-05-01T21:23:23.303Z,15.38
2019-05-01T21:28:27.307Z,9.25
2019-05-01T21:33:31.190Z,9.80
2019-05-01T21:38:35.095Z,9.05
2019-05-01T21:43:38.964Z,9.70
2019-05-01T21:48:43.540Z,9.75
2019-05-01T21:53:47.550Z,10.90
2019-05-01T21:58:51.422Z,10.70
2019-05-01T22:03:57.035Z,10.68
2019-05-01T22:09:00.826Z,10.35
2019-05-01T22:14:07.654Z,10.70
2019-05-01T22:19:19.296Z,9.63
2019-05-01T22:24:27.722Z,10.68
2019-05-01T22:29:34.223Z,10.08
2019-05-01T22:34:42.464Z,10.20
2019-05-01T22:39:47.900Z,10.15
2019-05-01T22:44:51.767Z,10.63
2019-05-01T22:49:55.842Z,9.65
2019-05-01T22:54:59.766Z,10.72
2019-05-01T23:00:05.324Z,10.98
2019-05-01T23:05:09.933Z,11.33
2019-05-01T23:10:14.258Z,11.10
2019-05-01T23:15:26.014Z,10.75
2019-05-01T23:20:30.199Z,11.38
2019-05-01T23:25:36.631Z,11.35
2019-05-01T23:30:39.776Z,10.10
2019-05-01T23:35:43.768Z,8.70
2019-05-01T23:40:50.963Z,7.90
2019-05-01T23:45:53.324Z,7.72
2019-05-01T23:50:57.247Z,8.65
2019-05-01T23:56:02.092Z,8.58
